Time;durP1;ratioP1;P1;durP2;ratioP2;P2;SDS_P1;SDS_P2;PMS_P1;PMS_P2;Temp;Humidity;BMP_temperature;BMP_pressure;BME280_temperature;BME280_humidity;BME280_pressure;Samples;Min_cycle;Max_cycle;Signal;HPM_P1;HPM_P2
2020/12/06 00:01:40;;;;;;;22.67;19.13;;;6.60;99.90;;;;;;5075405;28;20400;-55
2020/12/06 00:04:07;;;;;;;21.50;18.20;;;6.70;99.90;;;;;;5097004;28;20243;-53
2020/12/06 00:06:33;;;;;;;23.10;19.50;;;6.60;99.90;;;;;;5094571;28;20197;-54
2020/12/06 00:08:59;;;;;;;21.37;19.17;;;6.60;99.90;;;;;;5094705;28;20486;-54
2020/12/06 00:11:25;;;;;;;21.87;19.47;;;6.60;99.90;;;;;;5094511;28;20165;-53
2020/12/06 00:13:51;;;;;;;21.80;19.60;;;6.60;99.90;;;;;;5094182;28;20465;-53
2020/12/06 00:16:17;;;;;;;21.67;19.00;;;6.60;99.90;;;;;;5094061;28;20257;-55
2020/12/06 00:18:45;;;;;;;25.10;21.07;;;6.60;99.90;;;;;;5094020;28;20199;-57
2020/12/06 00:21:16;;;;;;;23.07;19.63;;;6.70;99.90;;;;;;5092969;28;20438;-56
2020/12/06 00:23:41;;;;;;;24.10;18.87;;;6.70;99.90;;;;;;5094438;28;20484;-56
2020/12/06 00:26:07;;;;;;;20.83;18.60;;;6.80;99.90;;;;;;5074066;28;20492;-53
2020/12/06 00:28:33;;;;;;;22.37;18.93;;;6.80;99.90;;;;;;5073431;28;20184;-54
2020/12/06 00:30:59;;;;;;;23.60;19.60;;;6.80;99.90;;;;;;5073574;28;20174;-52
2020/12/06 00:33:25;;;;;;;23.13;19.50;;;6.80;99.90;;;;;;5073486;28;20415;-55
2020/12/06 00:35:50;;;;;;;19.80;17.67;;;6.70;99.90;;;;;;5089572;28;20204;-54
2020/12/06 00:38:17;;;;;;;22.57;19.10;;;6.70;99.90;;;;;;5093768;28;20399;-56
2020/12/06 00:40:43;;;;;;;20.90;18.70;;;6.70;99.90;;;;;;5094073;28;20179;-55
2020/12/06 00:43:09;;;;;;;21.17;18.90;;;6.80;99.90;;;;;;5093490;28;20408;-54
2020/12/06 00:45:34;;;;;;;22.50;19.90;;;6.80;99.90;;;;;;5093623;28;20826;-54
2020/12/06 00:48:00;;;;;;;21.53;18.70;;;6.80;99.90;;;;;;5093387;28;20222;-55
2020/12/06 00:50:25;;;;;;;21.40;18.60;;;6.80;99.90;;;;;;5092098;28;20189;-53
2020/12/06 00:52:51;;;;;;;21.70;19.37;;;6.80;99.90;;;;;;5088884;28;20699;-56
2020/12/06 00:55:16;;;;;;;23.63;21.10;;;6.80;99.90;;;;;;5073782;28;20240;-53
2020/12/06 00:57:42;;;;;;;22.77;19.07;;;6.70;99.90;;;;;;5073194;28;20221;-53
2020/12/06 01:00:10;;;;;;;21.00;18.23;;;6.50;99.90;;;;;;5073197;28;20255;-53
2020/12/06 01:02:36;;;;;;;24.80;20.73;;;6.50;99.90;;;;;;5073796;28;20177;-53
2020/12/06 01:05:02;;;;;;;29.80;24.47;;;6.40;99.90;;;;;;5074618;28;20457;-56
2020/12/06 01:07:27;;;;;;;27.53;24.07;;;6.40;99.90;;;;;;5073357;28;20557;-53
2020/12/06 01:09:53;;;;;;;29.40;21.17;;;6.20;99.90;;;;;;5073316;28;20499;-56
2020/12/06 01:12:19;;;;;;;27.13;24.23;;;5.90;99.90;;;;;;5087130;28;20260;-56
2020/12/06 01:14:45;;;;;;;22.33;20.00;;;5.90;99.90;;;;;;5094177;28;20648;-53
2020/12/06 01:17:10;;;;;;;27.20;23.00;;;6.00;99.90;;;;;;5093302;28;20188;-53
2020/12/06 01:19:36;;;;;;;25.83;22.30;;;6.00;99.90;;;;;;5074893;28;20441;-56
2020/12/06 01:22:01;;;;;;;21.93;19.40;;;6.00;99.90;;;;;;5073254;28;20164;-57
2020/12/06 01:24:27;;;;;;;27.37;22.23;;;5.90;99.90;;;;;;5073329;28;20670;-53
2020/12/06 01:26:52;;;;;;;22.80;19.77;;;6.10;99.90;;;;;;5073292;28;20194;-56
2020/12/06 01:29:18;;;;;;;25.03;21.60;;;6.10;99.90;;;;;;5073017;28;20540;-55
2020/12/06 01:31:48;;;;;;;28.00;21.67;;;6.20;99.90;;;;;;5074589;28;20181;-53
2020/12/06 01:34:15;;;;;;;26.43;22.03;;;6.20;99.90;;;;;;5083688;28;20704;-54
2020/12/06 01:36:41;;;;;;;31.17;24.77;;;6.10;99.90;;;;;;5097057;28;20438;-56
2020/12/06 01:39:07;;;;;;;24.10;21.17;;;6.10;99.90;;;;;;5097897;28;20767;-55
2020/12/06 01:41:33;;;;;;;26.43;21.70;;;6.10;99.90;;;;;;5097723;28;20403;-56
2020/12/06 01:43:59;;;;;;;23.00;18.87;;;5.90;99.90;;;;;;5097865;28;20953;-54
2020/12/06 01:46:26;;;;;;;29.30;24.30;;;6.00;99.90;;;;;;5097713;28;20499;-54
2020/12/06 01:48:53;;;;;;;24.33;19.97;;;6.00;99.90;;;;;;5084014;28;20435;-54
2020/12/06 01:51:20;;;;;;;36.10;23.50;;;6.10;99.90;;;;;;5085936;28;20415;-55
2020/12/06 01:53:48;;;;;;;21.40;18.83;;;6.20;99.90;;;;;;5095673;28;20443;-53
2020/12/06 01:56:14;;;;;;;30.57;24.37;;;6.30;99.90;;;;;;5100575;28;20809;-57
2020/12/06 01:58:40;;;;;;;26.03;21.57;;;6.30;99.90;;;;;;5116934;28;20410;-53
2020/12/06 02:01:08;;;;;;;26.60;22.80;;;6.40;99.90;;;;;;5099241;28;20224;-54
2020/12/06 02:03:34;;;;;;;24.30;20.07;;;6.50;99.90;;;;;;5076750;28;20411;-54
2020/12/06 02:05:59;;;;;;;23.97;21.17;;;6.40;99.90;;;;;;5076489;28;20455;-53
2020/12/06 02:08:25;;;;;;;23.10;20.00;;;6.40;99.90;;;;;;5076038;28;20923;-55
2020/12/06 02:10:50;;;;;;;30.03;23.13;;;6.40;99.90;;;;;;5075939;28;20181;-52
2020/12/06 02:13:16;;;;;;;24.60;19.77;;;6.40;99.90;;;;;;5076287;28;20206;-53
2020/12/06 02:15:42;;;;;;;23.33;19.03;;;6.40;99.90;;;;;;5075975;28;20189;-56
2020/12/06 02:18:07;;;;;;;30.07;25.67;;;6.40;99.90;;;;;;5076444;28;20237;-55
2020/12/06 02:20:33;;;;;;;39.33;27.97;;;6.10;99.90;;;;;;5075108;28;20190;-55
2020/12/06 02:22:58;;;;;;;26.70;21.77;;;6.00;99.90;;;;;;5076047;28;20178;-54
2020/12/06 02:25:24;;;;;;;21.33;18.83;;;6.20;99.90;;;;;;5075095;28;20202;-53
2020/12/06 02:27:49;;;;;;;22.67;19.60;;;6.30;99.90;;;;;;5085109;28;20268;-51
2020/12/06 02:30:15;;;;;;;25.33;19.83;;;6.30;99.90;;;;;;5096310;28;20199;-53
2020/12/06 02:32:40;;;;;;;28.30;24.20;;;6.20;99.90;;;;;;5096558;28;20169;-54
2020/12/06 02:35:06;;;;;;;25.07;21.07;;;5.80;99.90;;;;;;5096045;28;20223;-53
2020/12/06 02:37:32;;;;;;;36.87;27.63;;;5.80;99.90;;;;;;5095936;28;20193;-54
2020/12/06 02:39:58;;;;;;;29.80;25.13;;;5.80;99.90;;;;;;5096717;28;20234;-53
2020/12/06 02:42:23;;;;;;;31.40;24.63;;;5.90;99.90;;;;;;5095914;28;20446;-52
2020/12/06 02:44:49;;;;;;;27.37;22.10;;;5.90;99.90;;;;;;5095680;28;20201;-53
2020/12/06 02:47:15;;;;;;;32.20;25.80;;;5.80;99.90;;;;;;5096293;28;20193;-54
2020/12/06 02:49:41;;;;;;;31.77;26.30;;;5.90;99.90;;;;;;5095974;28;20248;-53
2020/12/06 02:52:10;;;;;;;29.73;24.30;;;5.80;99.90;;;;;;5095838;28;20173;-53
2020/12/06 02:54:36;;;;;;;34.93;26.40;;;5.80;99.90;;;;;;5096159;28;20691;-52
2020/12/06 02:57:01;;;;;;;31.70;25.90;;;5.80;99.90;;;;;;5076363;28;20482;-53
2020/12/06 02:59:27;;;;;;;32.87;26.10;;;5.60;99.90;;;;;;5075369;28;20451;-55
2020/12/06 03:01:53;;;;;;;35.57;27.90;;;5.70;99.90;;;;;;5075047;28;20178;-53
2020/12/06 03:04:18;;;;;;;29.83;25.53;;;5.50;99.90;;;;;;5074633;28;20169;-52
2020/12/06 03:06:44;;;;;;;28.80;25.60;;;5.40;99.90;;;;;;5075319;28;20315;-55
2020/12/06 03:09:09;;;;;;;33.10;25.50;;;5.30;99.90;;;;;;5074785;28;20181;-56
2020/12/06 03:11:35;;;;;;;30.80;25.17;;;5.30;99.90;;;;;;5075065;28;20639;-53
2020/12/06 03:14:00;;;;;;;31.33;24.83;;;5.30;99.90;;;;;;5075649;28;20174;-54
2020/12/06 03:16:26;;;;;;;30.57;25.40;;;5.30;99.90;;;;;;5075226;28;20186;-54
2020/12/06 03:18:51;;;;;;;32.97;25.83;;;5.50;99.90;;;;;;5075171;28;20200;-54
2020/12/06 03:21:17;;;;;;;29.30;24.67;;;5.50;99.90;;;;;;5074965;28;20620;-53
2020/12/06 03:23:43;;;;;;;30.17;22.57;;;5.50;99.90;;;;;;5074948;28;20170;-56
2020/12/06 03:26:08;;;;;;;29.63;23.80;;;5.70;99.90;;;;;;5075395;28;20214;-62
2020/12/06 03:28:34;;;;;;;35.17;27.43;;;5.60;99.90;;;;;;5090345;28;20215;-56
2020/12/06 03:30:59;;;;;;;35.97;27.83;;;5.50;99.90;;;;;;5095388;28;20177;-52
2020/12/06 03:33:25;;;;;;;33.60;25.20;;;5.40;99.90;;;;;;5095032;28;20165;-53
2020/12/06 03:35:51;;;;;;;35.53;26.57;;;5.40;99.90;;;;;;5094949;28;20250;-54
2020/12/06 03:38:16;;;;;;;33.23;24.07;;;5.40;99.90;;;;;;5095332;28;20201;-53
2020/12/06 03:40:42;;;;;;;33.10;24.93;;;5.40;99.90;;;;;;5079904;28;20178;-52
2020/12/06 03:43:08;;;;;;;36.47;27.00;;;5.50;99.90;;;;;;5072951;28;20174;-53
2020/12/06 03:45:34;;;;;;;30.90;23.77;;;5.50;99.90;;;;;;5074703;28;20202;-53
2020/12/06 03:47:59;;;;;;;40.70;29.03;;;5.30;99.90;;;;;;5073469;28;20412;-53
2020/12/06 03:50:25;;;;;;;52.13;32.50;;;5.20;99.90;;;;;;5074828;28;20174;-52
2020/12/06 03:52:50;;;;;;;45.20;31.20;;;5.20;99.90;;;;;;5074628;28;20173;-52
2020/12/06 03:55:16;;;;;;;46.43;29.47;;;5.30;99.90;;;;;;5073579;28;20219;-54
2020/12/06 03:57:42;;;;;;;43.97;29.57;;;5.40;99.90;;;;;;5072873;28;20197;-52
2020/12/06 04:00:08;;;;;;;38.63;26.53;;;5.30;99.90;;;;;;5073759;28;20408;-53
2020/12/06 04:02:33;;;;;;;38.20;26.07;;;5.40;99.90;;;;;;5073528;28;20214;-52
2020/12/06 04:04:59;;;;;;;45.80;30.63;;;5.40;99.90;;;;;;5089245;28;20209;-54
2020/12/06 04:07:24;;;;;;;37.57;26.63;;;5.30;99.90;;;;;;5094313;28;20193;-53
2020/12/06 04:09:50;;;;;;;47.03;28.73;;;5.30;99.90;;;;;;5094281;28;20212;-55
2020/12/06 04:12:16;;;;;;;40.53;27.50;;;5.30;99.90;;;;;;5083532;28;20246;-53
2020/12/06 04:14:41;;;;;;;44.13;27.87;;;5.10;99.90;;;;;;5074235;28;20173;-56
2020/12/06 04:17:07;;;;;;;40.67;27.07;;;5.10;99.90;;;;;;5074082;28;20698;-52
2020/12/06 04:19:33;;;;;;;45.53;29.27;;;5.20;99.90;;;;;;5074002;28;20270;-52
2020/12/06 04:21:58;;;;;;;50.30;33.30;;;5.40;99.90;;;;;;5073082;28;20177;-52
2020/12/06 04:24:24;;;;;;;40.53;27.90;;;5.50;99.90;;;;;;5073749;28;20170;-53
2020/12/06 04:26:49;;;;;;;43.23;27.80;;;5.30;99.90;;;;;;5078822;28;20198;-53
2020/12/06 04:29:15;;;;;;;51.93;32.77;;;5.20;99.90;;;;;;5094197;28;20625;-52
2020/12/06 04:31:41;;;;;;;57.23;32.17;;;5.30;99.90;;;;;;5082431;28;20638;-52
2020/12/06 04:34:06;;;;;;;49.63;30.93;;;5.10;99.90;;;;;;5094146;28;20181;-52
2020/12/06 04:36:32;;;;;;;49.33;32.00;;;5.00;99.90;;;;;;5092992;28;20247;-54
2020/12/06 04:38:57;;;;;;;50.83;30.60;;;5.10;99.90;;;;;;5091472;28;20260;-54
2020/12/06 04:41:27;;;;;;;59.87;33.47;;;5.10;99.90;;;;;;5073982;28;20287;-53
2020/12/06 04:43:52;;;;;;;62.37;35.10;;;4.80;99.90;;;;;;5080774;28;20169;-52
2020/12/06 04:46:19;;;;;;;49.07;29.43;;;4.90;99.90;;;;;;5093851;28;20832;-53
2020/12/06 04:49:24;;;;;;;49.23;30.00;;;5.00;99.90;;;;;;5094068;28;20529;-53
2020/12/06 04:51:54;;;;;;;57.10;33.10;;;5.00;99.90;;;;;;5093998;28;20463;-52
2020/12/06 04:54:23;;;;;;;53.40;31.00;;;5.00;99.90;;;;;;5076117;28;20911;-52
2020/12/06 04:56:53;;;;;;;42.33;27.93;;;5.10;99.90;;;;;;5073340;28;20473;-52
2020/12/06 04:59:20;;;;;;;51.93;30.13;;;5.10;99.90;;;;;;5073764;28;20407;-52
2020/12/06 05:01:48;;;;;;;42.30;28.37;;;5.10;99.90;;;;;;5071823;28;20412;-52
2020/12/06 05:04:16;;;;;;;43.73;28.50;;;5.00;99.90;;;;;;5071935;28;20428;-53
2020/12/06 05:06:43;;;;;;;56.33;33.00;;;5.10;99.90;;;;;;5073085;28;20424;-52
2020/12/06 05:09:13;;;;;;;52.67;32.83;;;5.20;99.90;;;;;;5073557;28;20407;-52
2020/12/06 05:11:39;;;;;;;59.33;35.43;;;5.20;99.90;;;;;;5073446;28;20428;-52
2020/12/06 05:14:08;;;;;;;47.50;29.80;;;5.20;99.90;;;;;;5074092;28;20880;-52
2020/12/06 05:16:35;;;;;;;54.67;32.27;;;5.20;99.90;;;;;;5073294;28;20424;-54
2020/12/06 05:19:02;;;;;;;44.30;29.33;;;4.90;99.90;;;;;;5073368;28;20412;-54
2020/12/06 05:21:38;;;;;;;57.63;32.80;;;5.00;99.90;;;;;;5089025;28;20400;-57
2020/12/06 05:24:04;;;;;;;52.73;31.60;;;4.90;99.90;;;;;;5093310;28;20482;-54
2020/12/06 05:26:31;;;;;;;56.30;33.57;;;4.90;99.90;;;;;;5093076;28;20592;-53
2020/12/06 05:28:57;;;;;;;54.13;31.53;;;5.00;99.90;;;;;;5093911;28;20933;-57
2020/12/06 05:31:23;;;;;;;43.70;28.97;;;5.00;99.90;;;;;;5093242;28;20396;-53
2020/12/06 05:33:49;;;;;;;52.87;32.77;;;5.00;99.90;;;;;;5080614;28;20469;-55
2020/12/06 05:36:15;;;;;;;49.20;28.87;;;5.10;99.90;;;;;;5072957;28;20435;-55
2020/12/06 05:38:41;;;;;;;44.60;30.00;;;5.20;99.90;;;;;;5072911;28;20404;-53
2020/12/06 05:41:07;;;;;;;45.30;30.20;;;5.00;99.90;;;;;;5073174;28;20404;-54
2020/12/06 05:43:34;;;;;;;48.53;32.50;;;5.00;99.90;;;;;;5072950;28;20709;-56
2020/12/06 05:46:13;;;;;;;54.63;33.10;;;5.00;99.90;;;;;;5073005;28;20609;-55
2020/12/06 05:48:40;;;;;;;49.90;30.40;;;5.10;99.90;;;;;;5073730;28;20381;-53
2020/12/06 05:51:06;;;;;;;46.53;30.27;;;5.10;99.90;;;;;;5073984;28;20397;-53
2020/12/06 05:53:32;;;;;;;38.13;25.63;;;5.20;99.90;;;;;;5072735;28;20403;-54
2020/12/06 05:56:17;;;;;;;42.70;29.07;;;5.30;99.90;;;;;;5072813;28;20931;-54
2020/12/06 05:58:45;;;;;;;40.50;27.10;;;5.50;99.90;;;;;;5073749;28;20392;-55
2020/12/06 06:01:12;;;;;;;46.80;30.60;;;5.30;99.90;;;;;;5090314;28;20482;-56
2020/12/06 06:03:40;;;;;;;50.87;31.30;;;5.30;99.90;;;;;;5081630;28;20423;-54
2020/12/06 06:06:09;;;;;;;41.77;27.93;;;5.30;99.90;;;;;;5073135;28;20529;-53
2020/12/06 06:08:38;;;;;;;41.40;27.50;;;5.20;99.90;;;;;;5072885;28;20401;-53
2020/12/06 06:11:26;;;;;;;38.50;26.17;;;5.10;99.90;;;;;;5072912;28;20431;-56
2020/12/06 06:13:59;;;;;;;47.43;29.50;;;5.30;99.90;;;;;;5072908;28;20396;-52
2020/12/06 06:16:26;;;;;;;50.50;32.17;;;5.30;99.90;;;;;;5072820;28;20412;-53
2020/12/06 06:18:53;;;;;;;41.47;29.40;;;5.30;99.90;;;;;;5074093;28;20400;-53
2020/12/06 06:21:29;;;;;;;45.03;31.40;;;5.20;99.90;;;;;;5090967;28;20423;-55
2020/12/06 06:23:56;;;;;;;46.43;28.90;;;5.20;99.90;;;;;;5076683;28;20459;-54
2020/12/06 06:26:26;;;;;;;49.47;31.77;;;5.20;99.90;;;;;;5075978;28;20456;-53
2020/12/06 06:28:53;;;;;;;39.27;26.30;;;5.10;99.90;;;;;;5076003;28;20400;-53
2020/12/06 06:31:21;;;;;;;50.23;33.10;;;5.20;99.90;;;;;;5075883;28;20462;-56
2020/12/06 06:33:48;;;;;;;38.47;25.83;;;5.20;99.90;;;;;;5075039;28;20400;-55
2020/12/06 06:36:18;;;;;;;41.43;26.77;;;5.20;99.90;;;;;;5076151;28;20422;-53
2020/12/06 06:38:44;;;;;;;48.43;30.47;;;5.40;99.90;;;;;;5075826;28;20413;-53
2020/12/06 06:41:11;;;;;;;51.30;31.50;;;5.50;99.90;;;;;;5075666;28;20408;-53
2020/12/06 06:43:41;;;;;;;42.57;28.47;;;5.70;99.90;;;;;;5075978;28;20488;-55
2020/12/06 06:46:15;;;;;;;50.87;32.43;;;5.70;99.90;;;;;;5075538;28;20451;-53
2020/12/06 06:48:43;;;;;;;47.63;30.53;;;5.70;99.90;;;;;;5076360;28;20405;-54
2020/12/06 06:51:21;;;;;;;48.43;31.47;;;5.70;99.90;;;;;;5075607;28;20824;-55
2020/12/06 06:53:47;;;;;;;44.83;28.63;;;5.90;99.90;;;;;;5075302;28;20411;-54
2020/12/06 06:56:17;;;;;;;40.77;27.73;;;5.80;99.90;;;;;;5075878;28;20432;-53
2020/12/06 06:58:48;;;;;;;44.90;27.10;;;5.80;99.90;;;;;;5075866;28;20423;-56
2020/12/06 07:01:18;;;;;;;46.27;30.43;;;5.70;99.90;;;;;;5075458;28;20421;-56
2020/12/06 07:03:48;;;;;;;46.67;28.20;;;5.60;99.90;;;;;;5074176;28;20822;-53
2020/12/06 07:06:45;;;;;;;35.93;26.53;;;5.60;99.90;;;;;;5076197;28;20440;-53
2020/12/06 07:09:12;;;;;;;52.37;31.97;;;5.60;99.90;;;;;;5075234;28;20396;-55
2020/12/06 07:11:39;;;;;;;47.83;29.13;;;5.60;99.90;;;;;;5075711;28;20491;-54
2020/12/06 07:14:05;;;;;;;48.47;30.40;;;5.70;99.90;;;;;;5075358;28;20449;-55
2020/12/06 07:16:31;;;;;;;40.90;27.27;;;5.70;99.90;;;;;;5075429;28;20430;-54
2020/12/06 07:18:57;;;;;;;39.20;25.67;;;5.70;99.90;;;;;;5077278;28;20855;-54
2020/12/06 07:21:28;;;;;;;41.27;26.00;;;5.70;99.90;;;;;;5090253;28;20506;-52
2020/12/06 07:23:54;;;;;;;44.73;27.70;;;5.60;99.90;;;;;;5095771;28;20153;-53
2020/12/06 07:26:20;;;;;;;50.00;28.63;;;5.60;99.90;;;;;;5095532;28;20453;-53
2020/12/06 07:28:46;;;;;;;48.27;29.07;;;5.70;99.90;;;;;;5095403;28;20195;-53
2020/12/06 07:31:12;;;;;;;39.20;23.90;;;5.70;99.90;;;;;;5084794;28;20940;-55
2020/12/06 07:33:37;;;;;;;43.07;25.60;;;5.80;99.90;;;;;;5074081;28;20173;-52
2020/12/06 07:36:03;;;;;;;50.23;29.40;;;5.80;99.90;;;;;;5075342;28;20273;-53
2020/12/06 07:38:28;;;;;;;50.67;29.60;;;5.90;99.90;;;;;;5095395;28;20633;-52
2020/12/06 07:41:02;;;;;;;45.60;26.00;;;5.90;99.90;;;;;;5096180;28;20189;-54
2020/12/06 07:43:28;;;;;;;41.93;25.37;;;5.80;99.90;;;;;;5096163;28;20183;-55
2020/12/06 07:45:54;;;;;;;38.27;24.37;;;5.90;99.90;;;;;;5094853;28;20459;-52
2020/12/06 07:48:23;;;;;;;50.10;28.50;;;5.90;99.90;;;;;;5095363;28;20798;-53
2020/12/06 07:50:49;;;;;;;41.30;24.87;;;6.00;99.90;;;;;;5095125;28;20257;-56
2020/12/06 07:53:14;;;;;;;43.60;26.60;;;6.10;99.90;;;;;;5094817;28;20427;-55
2020/12/06 07:55:41;;;;;;;45.10;26.47;;;6.00;99.90;;;;;;5094636;28;20396;-55
2020/12/06 07:58:18;;;;;;;39.13;23.13;;;5.90;99.90;;;;;;5094922;28;20211;-54
2020/12/06 08:00:44;;;;;;;45.67;25.03;;;5.80;99.90;;;;;;5089465;28;20439;-57
2020/12/06 08:03:13;;;;;;;37.30;22.57;;;5.80;99.90;;;;;;5088312;28;20448;-56
2020/12/06 08:05:40;;;;;;;39.57;23.20;;;5.80;99.90;;;;;;5073606;28;20190;-54
2020/12/06 08:08:18;;;;;;;33.53;20.03;;;5.80;99.90;;;;;;5074168;28;20404;-53
2020/12/06 08:10:51;;;;;;;37.13;22.90;;;5.90;99.90;;;;;;5074230;28;20873;-57
2020/12/06 08:13:17;;;;;;;42.43;25.30;;;5.90;99.90;;;;;;5082291;28;20476;-54
2020/12/06 08:15:43;;;;;;;75.53;43.10;;;5.90;99.90;;;;;;5094551;28;20459;-53
2020/12/06 08:18:16;;;;;;;67.37;40.77;;;5.80;99.90;;;;;;5093188;28;20418;-55
2020/12/06 08:20:52;;;;;;;48.00;25.63;;;5.70;99.90;;;;;;5094190;28;20192;-54
2020/12/06 08:23:33;;;;;;;41.97;28.07;;;5.50;99.90;;;;;;5084749;28;20432;-52
2020/12/06 08:25:59;;;;;;;46.27;25.57;;;5.60;99.90;;;;;;5074298;28;20455;-53
2020/12/06 08:28:26;;;;;;;36.03;22.63;;;5.70;99.90;;;;;;5074351;28;20485;-53
2020/12/06 08:30:51;;;;;;;44.97;25.87;;;5.70;99.90;;;;;;5072348;28;20420;-56
2020/12/06 08:33:28;;;;;;;36.30;22.20;;;5.80;99.90;;;;;;5073516;28;20172;-54
2020/12/06 08:35:57;;;;;;;37.70;22.37;;;5.80;99.90;;;;;;5073868;28;20197;-54
2020/12/06 08:38:29;;;;;;;41.23;23.90;;;5.60;99.90;;;;;;5073513;28;20474;-53
2020/12/06 08:41:05;;;;;;;28.63;18.97;;;5.70;99.90;;;;;;5073542;28;20389;-53
2020/12/06 08:43:52;;;;;;;35.20;21.90;;;5.70;99.90;;;;;;5074171;28;20410;-52
2020/12/06 08:46:23;;;;;;;30.10;18.33;;;5.70;99.90;;;;;;5073906;28;20457;-53
2020/12/06 08:48:50;;;;;;;30.63;18.60;;;5.90;99.90;;;;;;5073174;28;20832;-54
2020/12/06 08:51:29;;;;;;;34.13;22.80;;;6.00;99.90;;;;;;5073659;28;20412;-53
2020/12/06 08:53:56;;;;;;;36.93;22.00;;;5.90;99.90;;;;;;5073498;28;20400;-55
2020/12/06 08:56:32;;;;;;;33.30;20.37;;;5.90;99.90;;;;;;5074349;28;20438;-56
2020/12/06 08:59:14;;;;;;;37.20;20.47;;;6.00;99.90;;;;;;5073555;28;20407;-53
2020/12/06 09:01:53;;;;;;;33.77;19.80;;;6.10;99.90;;;;;;5073490;28;20432;-53
2020/12/06 09:04:19;;;;;;;29.80;16.90;;;6.10;99.90;;;;;;5073261;28;20412;-53
2020/12/06 09:06:46;;;;;;;33.53;18.07;;;6.20;99.90;;;;;;5073230;28;20425;-54
2020/12/06 09:09:12;;;;;;;30.67;18.10;;;6.20;99.90;;;;;;5073482;28;20396;-52
2020/12/06 09:11:38;;;;;;;27.33;16.97;;;6.30;99.90;;;;;;5072366;28;20416;-54
2020/12/06 09:14:04;;;;;;;28.77;17.57;;;6.30;99.90;;;;;;5087571;28;20391;-53
2020/12/06 09:16:30;;;;;;;28.37;16.03;;;6.20;99.90;;;;;;5093523;28;20418;-53
2020/12/06 09:18:56;;;;;;;27.23;16.20;;;6.40;99.90;;;;;;5092692;28;20402;-52
2020/12/06 09:21:22;;;;;;;24.33;14.63;;;6.50;99.90;;;;;;5093347;28;20414;-54
2020/12/06 09:23:48;;;;;;;20.07;13.13;;;6.60;99.90;;;;;;5093737;28;20487;-53
2020/12/06 09:26:14;;;;;;;17.23;13.47;;;6.50;99.90;;;;;;5093637;28;20325;-55
2020/12/06 09:28:40;;;;;;;21.03;14.27;;;6.50;99.90;;;;;;5093489;28;20435;-57
2020/12/06 09:31:06;;;;;;;25.33;15.73;;;6.20;99.90;;;;;;5093548;28;20165;-52
2020/12/06 09:33:32;;;;;;;24.57;15.77;;;6.30;99.90;;;;;;5093328;28;20410;-53
2020/12/06 09:35:58;;;;;;;18.70;13.40;;;6.20;99.90;;;;;;5093460;28;20434;-53
2020/12/06 09:38:24;;;;;;;22.63;15.87;;;6.40;99.90;;;;;;5093414;28;20169;-55
2020/12/06 09:40:50;;;;;;;24.93;14.87;;;6.50;99.90;;;;;;5088047;28;20660;-52
2020/12/06 09:43:16;;;;;;;19.73;13.07;;;6.50;99.90;;;;;;5072374;28;20442;-55
2020/12/06 09:45:42;;;;;;;23.73;16.10;;;6.50;99.90;;;;;;5072911;28;20532;-55
2020/12/06 09:48:09;;;;;;;18.80;13.10;;;6.50;99.90;;;;;;5072192;28;20170;-53
2020/12/06 09:50:37;;;;;;;18.20;13.30;;;6.50;99.90;;;;;;5073342;28;20889;-54
2020/12/06 09:53:03;;;;;;;19.17;13.57;;;6.30;99.90;;;;;;5075138;28;20439;-54
2020/12/06 09:55:29;;;;;;;21.50;14.10;;;6.10;99.90;;;;;;5077216;28;20408;-54
2020/12/06 09:57:55;;;;;;;18.30;13.10;;;6.30;99.90;;;;;;5076128;28;20416;-53
2020/12/06 10:00:20;;;;;;;18.50;12.87;;;6.30;99.90;;;;;;5075783;28;20594;-54
2020/12/06 10:02:46;;;;;;;17.47;12.47;;;6.50;99.90;;;;;;5076700;28;20162;-53
2020/12/06 10:05:12;;;;;;;20.37;14.10;;;6.50;99.90;;;;;;5076539;28;20220;-52
2020/12/06 10:07:38;;;;;;;15.87;11.17;;;6.50;99.90;;;;;;5076840;28;20186;-53
2020/12/06 10:10:08;;;;;;;18.97;12.87;;;6.40;99.90;;;;;;5086369;28;20426;-53
2020/12/06 10:12:35;;;;;;;16.50;12.30;;;6.40;99.90;;;;;;5084009;28;20421;-56
2020/12/06 10:15:03;;;;;;;20.30;13.93;;;6.50;99.90;;;;;;5077280;28;20776;-55
2020/12/06 10:17:29;;;;;;;16.60;11.53;;;6.40;99.90;;;;;;5077200;28;20447;-53
2020/12/06 10:19:55;;;;;;;17.47;10.77;;;6.40;99.90;;;;;;5076216;28;20431;-56
2020/12/06 10:22:20;;;;;;;14.60;11.50;;;6.50;99.90;;;;;;5076227;28;20166;-55
2020/12/06 10:24:46;;;;;;;17.70;12.77;;;6.20;99.90;;;;;;5076896;28;20186;-55
2020/12/06 10:27:12;;;;;;;17.77;12.67;;;6.30;99.90;;;;;;5076255;28;20178;-55
2020/12/06 10:29:38;;;;;;;14.37;10.37;;;6.40;99.90;;;;;;5084837;28;20193;-55
2020/12/06 10:32:04;;;;;;;15.73;11.50;;;6.40;99.90;;;;;;5096615;28;20165;-54
2020/12/06 10:34:29;;;;;;;18.23;12.70;;;6.60;99.90;;;;;;5096444;28;20400;-56
2020/12/06 10:36:57;;;;;;;13.77;10.80;;;6.60;99.90;;;;;;5095312;28;20271;-53
2020/12/06 10:39:24;;;;;;;14.90;11.50;;;6.60;99.90;;;;;;5090741;28;20166;-56
2020/12/06 10:41:51;;;;;;;14.37;11.70;;;6.70;99.90;;;;;;5076860;28;20404;-56
2020/12/06 10:44:17;;;;;;;15.37;11.30;;;6.50;99.90;;;;;;5076060;28;20403;-54
2020/12/06 10:46:43;;;;;;;14.73;11.80;;;6.40;99.90;;;;;;5076034;28;20462;-52
2020/12/06 10:49:09;;;;;;;13.67;10.10;;;6.40;99.90;;;;;;5076087;28;20397;-53
2020/12/06 10:51:37;;;;;;;14.40;11.40;;;6.50;99.90;;;;;;5075305;28;20412;-54
2020/12/06 10:54:03;;;;;;;13.93;10.03;;;6.40;99.90;;;;;;5075612;28;20249;-55
2020/12/06 10:56:29;;;;;;;13.73;11.50;;;6.50;99.90;;;;;;5076041;28;20493;-54
2020/12/06 10:58:55;;;;;;;13.33;10.53;;;6.40;99.90;;;;;;5076116;28;20166;-55
2020/12/06 11:01:28;;;;;;;14.60;11.67;;;6.60;99.90;;;;;;5076174;28;20411;-55
2020/12/06 11:03:54;;;;;;;11.67;9.70;;;6.70;99.90;;;;;;5075215;28;20509;-56
2020/12/06 11:06:23;;;;;;;13.30;11.00;;;6.90;99.90;;;;;;5075567;28;20466;-54
2020/12/06 11:08:49;;;;;;;12.00;10.30;;;6.70;99.90;;;;;;5075702;28;20404;-55
2020/12/06 11:11:17;;;;;;;12.50;9.70;;;6.80;99.90;;;;;;5075633;28;20403;-54
2020/12/06 11:13:43;;;;;;;12.43;9.83;;;6.70;99.90;;;;;;5075038;28;20556;-55
2020/12/06 11:16:09;;;;;;;11.20;10.00;;;6.90;99.90;;;;;;5075650;28;20420;-57
2020/12/06 11:18:35;;;;;;;15.67;11.43;;;7.00;99.90;;;;;;5075682;28;20977;-56
2020/12/06 11:21:01;;;;;;;13.77;11.20;;;6.90;99.90;;;;;;5075636;28;20193;-59
2020/12/06 11:23:26;;;;;;;12.67;10.50;;;6.80;99.90;;;;;;5075360;28;20788;-57
2020/12/06 11:25:53;;;;;;;12.57;9.90;;;6.80;99.90;;;;;;5075295;28;20686;-57
2020/12/06 11:28:19;;;;;;;12.10;10.90;;;6.90;99.90;;;;;;5074757;28;20249;-56
2020/12/06 11:30:44;;;;;;;11.40;10.07;;;6.90;99.90;;;;;;5075463;28;20400;-55
2020/12/06 11:33:10;;;;;;;13.13;10.70;;;6.90;99.90;;;;;;5075489;28;20923;-57
2020/12/06 11:35:36;;;;;;;15.00;11.63;;;7.10;99.90;;;;;;5075062;28;20173;-56
2020/12/06 11:38:02;;;;;;;13.00;10.83;;;7.10;99.90;;;;;;5074108;28;20177;-60
2020/12/06 11:40:27;;;;;;;10.53;9.40;;;7.10;99.90;;;;;;5075228;28;20550;-56
2020/12/06 11:42:53;;;;;;;10.20;8.80;;;7.10;99.90;;;;;;5075611;28;20176;-57
2020/12/06 11:45:18;;;;;;;12.60;10.67;;;7.10;99.90;;;;;;5075234;28;20190;-56
2020/12/06 11:47:44;;;;;;;11.07;9.03;;;7.20;99.90;;;;;;5075102;28;20721;-57
2020/12/06 11:50:10;;;;;;;9.50;8.43;;;7.10;99.90;;;;;;5074847;28;20505;-56
2020/12/06 11:52:35;;;;;;;8.87;8.03;;;7.00;99.90;;;;;;5074449;28;20630;-58
2020/12/06 11:55:01;;;;;;;8.67;7.37;;;7.00;99.90;;;;;;5074779;28;20400;-54
2020/12/06 11:57:27;;;;;;;10.30;8.30;;;6.90;99.90;;;;;;5074880;28;20224;-56
2020/12/06 11:59:52;;;;;;;11.80;9.97;;;7.10;99.90;;;;;;5074795;28;20508;-55
2020/12/06 12:02:18;;;;;;;12.10;9.90;;;7.30;99.90;;;;;;5075205;28;20268;-56
2020/12/06 12:04:44;;;;;;;9.60;8.60;;;7.30;99.90;;;;;;5075688;28;20170;-54
2020/12/06 12:07:09;;;;;;;9.80;8.80;;;7.30;99.90;;;;;;5091291;28;20680;-56
2020/12/06 12:09:35;;;;;;;18.70;12.80;;;7.40;99.90;;;;;;5093313;28;20256;-57
2020/12/06 12:12:01;;;;;;;14.50;11.87;;;7.10;99.90;;;;;;5095341;28;20158;-58
2020/12/06 12:14:27;;;;;;;12.77;10.00;;;7.20;99.90;;;;;;5096683;28;20174;-57
2020/12/06 12:16:53;;;;;;;8.97;8.07;;;7.30;99.90;;;;;;5094356;28;20219;-58
2020/12/06 12:19:19;;;;;;;11.80;9.73;;;7.30;99.90;;;;;;5095092;28;20762;-54
2020/12/06 12:21:44;;;;;;;10.03;9.03;;;7.40;99.90;;;;;;5094994;28;20410;-57
2020/12/06 12:24:10;;;;;;;11.73;9.70;;;7.40;99.90;;;;;;5079652;28;20263;-56
2020/12/06 12:26:36;;;;;;;11.13;10.03;;;7.50;99.90;;;;;;5074454;28;20226;-57
2020/12/06 12:29:01;;;;;;;9.87;8.63;;;7.60;99.90;;;;;;5075232;28;20170;-57
2020/12/06 12:31:28;;;;;;;9.23;8.33;;;7.60;99.90;;;;;;5075635;28;20167;-57
2020/12/06 12:33:53;;;;;;;10.00;8.97;;;7.50;99.90;;;;;;5076426;28;20197;-59
2020/12/06 12:36:19;;;;;;;11.23;9.80;;;7.60;99.90;;;;;;5075591;28;20820;-57
2020/12/06 12:38:45;;;;;;;10.10;9.10;;;7.60;99.90;;;;;;5074666;28;20254;-58